sensor_id;sensor_type;location;lat;lon;timestamp;pressure;altitude;pressure_sealevel;temperature;humidity
61113;BME280;47184;57.998;56.184;2023-02-14T00:00:19;99922.69;;;-4.15;72.45
61113;BME280;47184;57.998;56.184;2023-02-14T00:02:47;99939.13;;;-3.99;72.42
61113;BME280;47184;57.998;56.184;2023-02-14T00:05:14;99931.53;;;-4.02;72.34
61113;BME280;47184;57.998;56.184;2023-02-14T00:07:40;99916.19;;;-4.05;72.31
61113;BME280;47184;57.998;56.184;2023-02-14T00:10:08;99941.28;;;-3.90;72.19
61113;BME280;47184;57.998;56.184;2023-02-14T00:12:34;99925.47;;;-4.01;72.24
61113;BME280;47184;57.998;56.184;2023-02-14T00:15:01;99947.91;;;-3.84;72.04
61113;BME280;47184;57.998;56.184;2023-02-14T00:17:45;99941.03;;;-3.84;72.12
61113;BME280;47184;57.998;56.184;2023-02-14T00:20:11;99946.66;;;-3.76;72.12
61113;BME280;47184;57.998;56.184;2023-02-14T00:22:37;99961.34;;;-3.78;72.25
61113;BME280;47184;57.998;56.184;2023-02-14T00:25:03;99956.91;;;-3.93;72.61
61113;BME280;47184;57.998;56.184;2023-02-14T00:27:29;99927.78;;;-3.95;72.13
61113;BME280;47184;57.998;56.184;2023-02-14T00:29:55;99942.59;;;-3.81;72.08
61113;BME280;47184;57.998;56.184;2023-02-14T00:32:23;99945.88;;;-3.96;72.54
61113;BME280;47184;57.998;56.184;2023-02-14T00:34:52;99943.31;;;-3.96;72.12
61113;BME280;47184;57.998;56.184;2023-02-14T00:37:18;99963.25;;;-3.81;72.32
61113;BME280;47184;57.998;56.184;2023-02-14T00:39:44;99965.75;;;-3.80;72.44
61113;BME280;47184;57.998;56.184;2023-02-14T00:42:10;99961.44;;;-3.79;72.33
61113;BME280;47184;57.998;56.184;2023-02-14T00:44:38;99946.59;;;-3.93;72.32
61113;BME280;47184;57.998;56.184;2023-02-14T00:47:04;99963.44;;;-3.86;72.39
61113;BME280;47184;57.998;56.184;2023-02-14T00:49:30;99957.47;;;-3.86;72.20
61113;BME280;47184;57.998;56.184;2023-02-14T00:51:57;99962.69;;;-3.88;72.56
61113;BME280;47184;57.998;56.184;2023-02-14T00:54:24;99958.84;;;-3.98;72.67
61113;BME280;47184;57.998;56.184;2023-02-14T00:56:50;99964.94;;;-3.99;72.40
61113;BME280;47184;57.998;56.184;2023-02-14T00:59:16;99961.06;;;-4.09;72.75
61113;BME280;47184;57.998;56.184;2023-02-14T01:01:42;99973.09;;;-4.08;72.77
61113;BME280;47184;57.998;56.184;2023-02-14T01:04:08;99961.25;;;-4.12;72.96
61113;BME280;47184;57.998;56.184;2023-02-14T01:06:34;99959.00;;;-4.20;73.12
61113;BME280;47184;57.998;56.184;2023-02-14T01:09:00;99970.31;;;-4.04;72.57
61113;BME280;47184;57.998;56.184;2023-02-14T01:11:26;99953.50;;;-4.12;73.02
61113;BME280;47184;57.998;56.184;2023-02-14T01:13:54;99975.50;;;-4.05;72.98
61113;BME280;47184;57.998;56.184;2023-02-14T01:16:24;99970.34;;;-4.05;72.96
61113;BME280;47184;57.998;56.184;2023-02-14T01:22:12;99978.09;;;-4.05;72.69
61113;BME280;47184;57.998;56.184;2023-02-14T01:24:40;99979.69;;;-4.03;73.35
61113;BME280;47184;57.998;56.184;2023-02-14T01:27:05;99964.94;;;-3.99;73.05
61113;BME280;47184;57.998;56.184;2023-02-14T01:29:31;99962.13;;;-4.13;73.54
61113;BME280;47184;57.998;56.184;2023-02-14T01:31:57;99975.47;;;-4.04;73.83
61113;BME280;47184;57.998;56.184;2023-02-14T01:34:23;99982.00;;;-3.96;73.42
61113;BME280;47184;57.998;56.184;2023-02-14T01:36:49;99986.25;;;-3.95;73.64
61113;BME280;47184;57.998;56.184;2023-02-14T01:39:17;99966.31;;;-4.11;74.03
61113;BME280;47184;57.998;56.184;2023-02-14T01:41:45;99979.34;;;-3.95;73.81
61113;BME280;47184;57.998;56.184;2023-02-14T01:46:46;99984.56;;;-3.96;73.80
61113;BME280;47184;57.998;56.184;2023-02-14T01:49:28;99988.84;;;-3.95;73.56
61113;BME280;47184;57.998;56.184;2023-02-14T01:52:07;99978.56;;;-3.97;73.49
61113;BME280;47184;57.998;56.184;2023-02-14T01:54:39;99981.94;;;-3.95;73.77
61113;BME280;47184;57.998;56.184;2023-02-14T01:57:09;99986.47;;;-4.00;73.82
61113;BME280;47184;57.998;56.184;2023-02-14T01:59:38;99986.16;;;-4.13;73.96
61113;BME280;47184;57.998;56.184;2023-02-14T02:02:06;100000.03;;;-4.15;74.11
61113;BME280;47184;57.998;56.184;2023-02-14T02:04:38;99989.97;;;-4.21;74.04
61113;BME280;47184;57.998;56.184;2023-02-14T02:07:09;99997.34;;;-4.12;74.12
61113;BME280;47184;57.998;56.184;2023-02-14T02:12:17;99999.63;;;-4.06;74.35
61113;BME280;47184;57.998;56.184;2023-02-14T02:14:45;100001.78;;;-3.97;74.12
61113;BME280;47184;57.998;56.184;2023-02-14T02:42:05;100004.94;;;-3.71;73.45
61113;BME280;47184;57.998;56.184;2023-02-14T02:44:47;99993.16;;;-3.77;73.45
61113;BME280;47184;57.998;56.184;2023-02-14T02:47:43;100006.66;;;-3.72;73.70
61113;BME280;47184;57.998;56.184;2023-02-14T02:50:22;100015.44;;;-3.76;73.59
61113;BME280;47184;57.998;56.184;2023-02-14T02:53:23;100018.94;;;-3.77;73.32
61113;BME280;47184;57.998;56.184;2023-02-14T02:58:49;100022.22;;;-3.74;73.48
61113;BME280;47184;57.998;56.184;2023-02-14T03:01:23;100021.53;;;-3.77;73.39
61113;BME280;47184;57.998;56.184;2023-02-14T03:03:55;100030.88;;;-3.75;73.45
61113;BME280;47184;57.998;56.184;2023-02-14T03:06:46;100023.06;;;-3.73;73.58
61113;BME280;47184;57.998;56.184;2023-02-14T03:14:58;100028.78;;;-3.66;73.71
61113;BME280;47184;57.998;56.184;2023-02-14T03:21:17;100036.66;;;-3.69;73.38
61113;BME280;47184;57.998;56.184;2023-02-14T03:26:17;100038.31;;;-3.68;73.52
61113;BME280;47184;57.998;56.184;2023-02-14T03:29:12;100037.50;;;-3.69;73.44
61113;BME280;47184;57.998;56.184;2023-02-14T03:37:22;100041.00;;;-3.70;73.74
61113;BME280;47184;57.998;56.184;2023-02-14T03:43:00;100037.09;;;-3.79;73.61
61113;BME280;47184;57.998;56.184;2023-02-14T03:45:38;100036.09;;;-3.76;73.77
61113;BME280;47184;57.998;56.184;2023-02-14T03:48:10;100007.09;;;-3.81;73.73
61113;BME280;47184;57.998;56.184;2023-02-14T03:50:37;100027.31;;;-3.72;73.71
61113;BME280;47184;57.998;56.184;2023-02-14T03:53:07;100037.16;;;-3.61;73.47
61113;BME280;47184;57.998;56.184;2023-02-14T03:56:00;100021.47;;;-3.76;73.84
61113;BME280;47184;57.998;56.184;2023-02-14T03:58:35;100028.91;;;-3.69;73.62
61113;BME280;47184;57.998;56.184;2023-02-14T04:01:12;100031.38;;;-3.66;73.85
61113;BME280;47184;57.998;56.184;2023-02-14T04:03:40;100032.41;;;-3.70;73.88
61113;BME280;47184;57.998;56.184;2023-02-14T04:06:07;100013.56;;;-4.10;74.90
61113;BME280;47184;57.998;56.184;2023-02-14T04:08:33;100018.25;;;-3.81;74.44
61113;BME280;47184;57.998;56.184;2023-02-14T04:11:00;100046.28;;;-3.54;74.15
61113;BME280;47184;57.998;56.184;2023-02-14T04:13:27;100041.00;;;-3.51;73.89
61113;BME280;47184;57.998;56.184;2023-02-14T04:15:54;100043.63;;;-3.53;74.45
61113;BME280;47184;57.998;56.184;2023-02-14T04:18:20;100027.03;;;-3.66;74.12
61113;BME280;47184;57.998;56.184;2023-02-14T04:21:04;100048.66;;;-3.50;74.07
61113;BME280;47184;57.998;56.184;2023-02-14T04:23:30;100057.63;;;-3.39;74.32
61113;BME280;47184;57.998;56.184;2023-02-14T04:25:57;100019.00;;;-3.60;74.58
61113;BME280;47184;57.998;56.184;2023-02-14T04:28:23;100049.13;;;-3.41;74.20
61113;BME280;47184;57.998;56.184;2023-02-14T04:30:49;100055.84;;;-3.37;73.87
61113;BME280;47184;57.998;56.184;2023-02-14T04:33:15;100058.91;;;-3.29;73.83
61113;BME280;47184;57.998;56.184;2023-02-14T04:35:41;100059.25;;;-3.37;74.06
61113;BME280;47184;57.998;56.184;2023-02-14T04:38:07;100064.91;;;-3.47;74.61
61113;BME280;47184;57.998;56.184;2023-02-14T04:40:33;100068.59;;;-3.53;74.95
61113;BME280;47184;57.998;56.184;2023-02-14T04:42:59;100058.19;;;-3.52;74.87
61113;BME280;47184;57.998;56.184;2023-02-14T04:45:26;100058.50;;;-3.39;74.32
61113;BME280;47184;57.998;56.184;2023-02-14T04:47:52;100068.72;;;-3.56;75.17
61113;BME280;47184;57.998;56.184;2023-02-14T04:50:18;100070.28;;;-3.33;74.62
61113;BME280;47184;57.998;56.184;2023-02-14T04:52:44;100068.13;;;-3.42;74.80
61113;BME280;47184;57.998;56.184;2023-02-14T04:55:10;100061.69;;;-3.34;74.67
61113;BME280;47184;57.998;56.184;2023-02-14T04:57:36;100048.31;;;-3.42;75.02
61113;BME280;47184;57.998;56.184;2023-02-14T05:00:03;100037.63;;;-3.53;74.85
61113;BME280;47184;57.998;56.184;2023-02-14T05:02:30;100064.66;;;-3.24;74.71
61113;BME280;47184;57.998;56.184;2023-02-14T05:04:56;100078.72;;;-3.30;75.21
61113;BME280;47184;57.998;56.184;2023-02-14T05:07:22;100059.13;;;-3.34;75.25
61113;BME280;47184;57.998;56.184;2023-02-14T05:09:48;100067.69;;;-3.14;75.06
61113;BME280;47184;57.998;56.184;2023-02-14T05:12:15;100070.25;;;-3.14;74.81
61113;BME280;47184;57.998;56.184;2023-02-14T05:14:41;100076.78;;;-3.07;74.86
61113;BME280;47184;57.998;56.184;2023-02-14T05:17:08;100076.28;;;-2.96;74.86
61113;BME280;47184;57.998;56.184;2023-02-14T05:19:34;100070.19;;;-2.95;74.59
61113;BME280;47184;57.998;56.184;2023-02-14T05:22:00;100084.13;;;-2.98;74.48
61113;BME280;47184;57.998;56.184;2023-02-14T05:24:26;100060.72;;;-2.95;74.15
61113;BME280;47184;57.998;56.184;2023-02-14T05:26:52;100083.13;;;-2.78;74.04
61113;BME280;47184;57.998;56.184;2023-02-14T05:29:18;100071.72;;;-2.91;74.47
61113;BME280;47184;57.998;56.184;2023-02-14T05:31:44;100078.38;;;-2.86;73.98
61113;BME280;47184;57.998;56.184;2023-02-14T05:34:11;100077.09;;;-2.77;74.30
61113;BME280;47184;57.998;56.184;2023-02-14T05:36:37;100079.91;;;-2.64;73.82
61113;BME280;47184;57.998;56.184;2023-02-14T05:39:03;100085.81;;;-2.62;74.03
61113;BME280;47184;57.998;56.184;2023-02-14T05:41:29;100085.38;;;-2.53;73.40
61113;BME280;47184;57.998;56.184;2023-02-14T05:43:55;100091.69;;;-2.59;73.88
61113;BME280;47184;57.998;56.184;2023-02-14T05:46:22;100073.44;;;-2.73;74.06
61113;BME280;47184;57.998;56.184;2023-02-14T05:48:48;100101.41;;;-2.46;72.98
61113;BME280;47184;57.998;56.184;2023-02-14T05:51:14;100074.78;;;-2.66;73.50
61113;BME280;47184;57.998;56.184;2023-02-14T05:53:40;100111.53;;;-2.42;73.37
61113;BME280;47184;57.998;56.184;2023-02-14T05:56:06;100107.66;;;-2.33;72.96
61113;BME280;47184;57.998;56.184;2023-02-14T05:58:32;100099.44;;;-2.41;72.97
61113;BME280;47184;57.998;56.184;2023-02-14T06:00:59;100113.38;;;-2.61;73.26
61113;BME280;47184;57.998;56.184;2023-02-14T06:03:25;100099.56;;;-2.62;73.24
61113;BME280;47184;57.998;56.184;2023-02-14T06:05:51;100105.91;;;-2.50;72.68
61113;BME280;47184;57.998;56.184;2023-02-14T06:08:17;100113.88;;;-2.37;72.81
61113;BME280;47184;57.998;56.184;2023-02-14T06:10:43;100115.72;;;-2.57;73.04
61113;BME280;47184;57.998;56.184;2023-02-14T06:13:10;100112.00;;;-2.51;73.04
61113;BME280;47184;57.998;56.184;2023-02-14T06:15:37;100110.94;;;-2.47;72.20
61113;BME280;47184;57.998;56.184;2023-02-14T06:18:04;100121.72;;;-2.21;71.89
61113;BME280;47184;57.998;56.184;2023-02-14T06:20:30;100118.50;;;-2.09;72.36
61113;BME280;47184;57.998;56.184;2023-02-14T06:22:56;100097.63;;;-1.89;71.83
61113;BME280;47184;57.998;56.184;2023-02-14T06:25:23;100116.41;;;-1.52;71.12
61113;BME280;47184;57.998;56.184;2023-02-14T06:27:50;100122.31;;;-1.33;71.08
61113;BME280;47184;57.998;56.184;2023-02-14T06:30:16;100110.44;;;-1.21;70.41
61113;BME280;47184;57.998;56.184;2023-02-14T06:32:43;100127.59;;;-1.18;69.54
61113;BME280;47184;57.998;56.184;2023-02-14T06:35:09;100127.75;;;-1.70;68.78
61113;BME280;47184;57.998;56.184;2023-02-14T06:37:35;100140.44;;;-1.33;69.12
61113;BME280;47184;57.998;56.184;2023-02-14T06:40:03;100129.84;;;-0.96;68.01
61113;BME280;47184;57.998;56.184;2023-02-14T06:42:30;100136.47;;;-0.01;67.14
61113;BME280;47184;57.998;56.184;2023-02-14T06:44:56;100127.31;;;0.51;65.83
61113;BME280;47184;57.998;56.184;2023-02-14T06:47:22;100123.88;;;0.79;64.16
61113;BME280;47184;57.998;56.184;2023-02-14T06:49:48;100125.00;;;0.61;63.25
61113;BME280;47184;57.998;56.184;2023-02-14T06:52:17;100136.66;;;0.11;63.25
61113;BME280;47184;57.998;56.184;2023-02-14T06:54:43;100143.19;;;-0.27;63.90
61113;BME280;47184;57.998;56.184;2023-02-14T06:57:09;100137.09;;;-0.41;64.42
61113;BME280;47184;57.998;56.184;2023-02-14T06:59:35;100148.34;;;-0.41;64.97
61113;BME280;47184;57.998;56.184;2023-02-14T07:02:01;100150.75;;;-0.54;65.04
61113;BME280;47184;57.998;56.184;2023-02-14T07:04:28;100145.94;;;-0.76;65.46
61113;BME280;47184;57.998;56.184;2023-02-14T07:06:54;100150.41;;;-0.78;65.70
61113;BME280;47184;57.998;56.184;2023-02-14T07:09:20;100148.72;;;-0.79;65.58
61113;BME280;47184;57.998;56.184;2023-02-14T07:11:46;100150.63;;;-0.82;65.98
61113;BME280;47184;57.998;56.184;2023-02-14T07:14:13;100137.25;;;-0.90;65.52
61113;BME280;47184;57.998;56.184;2023-02-14T07:16:39;100144.03;;;-0.88;65.52
61113;BME280;47184;57.998;56.184;2023-02-14T07:19:05;100150.81;;;-0.85;66.10
61113;BME280;47184;57.998;56.184;2023-02-14T07:21:31;100124.41;;;-0.92;66.21
61113;BME280;47184;57.998;56.184;2023-02-14T07:23:57;100155.75;;;-0.65;65.90
61113;BME280;47184;57.998;56.184;2023-02-14T07:26:23;100166.53;;;-0.72;65.57
61113;BME280;47184;57.998;56.184;2023-02-14T07:28:48;100157.16;;;-0.91;65.53
61113;BME280;47184;57.998;56.184;2023-02-14T07:31:15;100135.94;;;-1.13;65.38
61113;BME280;47184;57.998;56.184;2023-02-14T07:33:41;100147.66;;;-1.06;65.86
61113;BME280;47184;57.998;56.184;2023-02-14T07:36:08;100151.34;;;-1.10;65.60
61113;BME280;47184;57.998;56.184;2023-02-14T07:38:34;100151.38;;;-1.12;66.07
61113;BME280;47184;57.998;56.184;2023-02-14T07:41:01;100130.25;;;-1.20;65.92
61113;BME280;47184;57.998;56.184;2023-02-14T07:43:28;100149.56;;;-0.94;65.61
61113;BME280;47184;57.998;56.184;2023-02-14T07:45:55;100140.88;;;-1.09;65.84
61113;BME280;47184;57.998;56.184;2023-02-14T07:48:21;100153.31;;;-0.84;65.86
61113;BME280;47184;57.998;56.184;2023-02-14T07:50:47;100144.44;;;-0.80;65.75
61113;BME280;47184;57.998;56.184;2023-02-14T07:53:13;100154.41;;;-1.04;65.40
61113;BME280;47184;57.998;56.184;2023-02-14T07:55:40;100156.50;;;-0.79;65.20
61113;BME280;47184;57.998;56.184;2023-02-14T07:58:06;100141.34;;;-0.70;65.23
61113;BME280;47184;57.998;56.184;2023-02-14T08:00:32;100162.31;;;-0.13;65.09
61113;BME280;47184;57.998;56.184;2023-02-14T08:02:58;100164.94;;;0.01;64.28
61113;BME280;47184;57.998;56.184;2023-02-14T08:05:24;100160.41;;;0.05;63.77
61113;BME280;47184;57.998;56.184;2023-02-14T08:07:50;100165.22;;;-0.04;63.69
61113;BME280;47184;57.998;56.184;2023-02-14T08:10:16;100157.78;;;-0.10;63.99
61113;BME280;47184;57.998;56.184;2023-02-14T08:12:43;100167.09;;;-0.21;63.50
61113;BME280;47184;57.998;56.184;2023-02-14T08:15:26;100171.41;;;-0.06;63.61
61113;BME280;47184;57.998;56.184;2023-02-14T08:18:11;100155.97;;;-0.23;63.54
61113;BME280;47184;57.998;56.184;2023-02-14T08:20:37;100164.50;;;-0.21;63.91
61113;BME280;47184;57.998;56.184;2023-02-14T08:23:03;100182.69;;;-0.37;64.24
61113;BME280;47184;57.998;56.184;2023-02-14T08:25:29;100181.41;;;-0.44;63.81
61113;BME280;47184;57.998;56.184;2023-02-14T08:27:55;100185.34;;;-0.53;64.21
61113;BME280;47184;57.998;56.184;2023-02-14T08:30:21;100174.38;;;-0.74;64.33
61113;BME280;47184;57.998;56.184;2023-02-14T08:32:48;100166.59;;;-0.74;64.29
61113;BME280;47184;57.998;56.184;2023-02-14T08:35:14;100177.47;;;-0.83;64.45
61113;BME280;47184;57.998;56.184;2023-02-14T08:37:40;100175.91;;;-0.86;65.07
61113;BME280;47184;57.998;56.184;2023-02-14T08:40:06;100154.56;;;-1.07;65.20
61113;BME280;47184;57.998;56.184;2023-02-14T08:42:33;100171.88;;;-0.91;65.10
61113;BME280;47184;57.998;56.184;2023-02-14T08:44:59;100163.69;;;-1.00;65.23
61113;BME280;47184;57.998;56.184;2023-02-14T08:47:25;100172.91;;;-0.94;65.66
61113;BME280;47184;57.998;56.184;2023-02-14T08:49:51;100175.22;;;-1.05;65.60
61113;BME280;47184;57.998;56.184;2023-02-14T08:52:17;100167.84;;;-1.29;66.16
61113;BME280;47184;57.998;56.184;2023-02-14T08:54:43;100175.53;;;-1.27;66.11
61113;BME280;47184;57.998;56.184;2023-02-14T08:57:09;100180.38;;;-1.21;66.28
61113;BME280;47184;57.998;56.184;2023-02-14T08:59:35;100185.00;;;-1.26;66.27
61113;BME280;47184;57.998;56.184;2023-02-14T09:02:01;100178.53;;;-1.35;66.28
61113;BME280;47184;57.998;56.184;2023-02-14T09:04:27;100185.28;;;-1.32;66.80
61113;BME280;47184;57.998;56.184;2023-02-14T09:06:54;100178.88;;;-1.25;66.07
61113;BME280;47184;57.998;56.184;2023-02-14T09:09:19;100170.19;;;-1.24;66.58
61113;BME280;47184;57.998;56.184;2023-02-14T09:11:45;100172.25;;;-1.46;66.93
61113;BME280;47184;57.998;56.184;2023-02-14T09:14:11;100179.09;;;-1.45;67.37
61113;BME280;47184;57.998;56.184;2023-02-14T09:16:38;100179.78;;;-1.42;66.74
61113;BME280;47184;57.998;56.184;2023-02-14T09:19:04;100175.44;;;-1.41;67.31
61113;BME280;47184;57.998;56.184;2023-02-14T09:21:30;100171.25;;;-1.28;67.23
61113;BME280;47184;57.998;56.184;2023-02-14T09:23:56;100162.94;;;-1.17;66.70
61113;BME280;47184;57.998;56.184;2023-02-14T09:26:22;100178.91;;;-1.09;67.16
61113;BME280;47184;57.998;56.184;2023-02-14T09:28:48;100179.91;;;-1.12;67.32
61113;BME280;47184;57.998;56.184;2023-02-14T09:31:19;100174.72;;;-1.12;66.74
61113;BME280;47184;57.998;56.184;2023-02-14T09:33:47;100149.97;;;-1.17;67.18
61113;BME280;47184;57.998;56.184;2023-02-14T09:36:34;100159.75;;;-1.07;66.59
61113;BME280;47184;57.998;56.184;2023-02-14T09:39:00;100179.75;;;-0.93;66.95
61113;BME280;47184;57.998;56.184;2023-02-14T09:44:06;100175.47;;;-0.78;66.72
61113;BME280;47184;57.998;56.184;2023-02-14T09:46:44;100177.31;;;-0.80;66.92
61113;BME280;47184;57.998;56.184;2023-02-14T09:49:15;100166.69;;;-0.91;66.34
61113;BME280;47184;57.998;56.184;2023-02-14T09:51:47;100169.03;;;-1.03;66.62
61113;BME280;47184;57.998;56.184;2023-02-14T09:54:23;100177.41;;;-0.97;66.84
61113;BME280;47184;57.998;56.184;2023-02-14T09:56:54;100184.44;;;-0.84;66.40
61113;BME280;47184;57.998;56.184;2023-02-14T09:59:28;100169.53;;;-0.80;66.67
61113;BME280;47184;57.998;56.184;2023-02-14T10:02:42;100184.69;;;-0.88;66.70
61113;BME280;47184;57.998;56.184;2023-02-14T10:05:16;100162.94;;;-1.02;66.58
61113;BME280;47184;57.998;56.184;2023-02-14T10:10:25;100183.91;;;-0.90;66.73
61113;BME280;47184;57.998;56.184;2023-02-14T10:12:58;100184.25;;;-0.96;66.23
61113;BME280;47184;57.998;56.184;2023-02-14T10:15:33;100180.59;;;-0.92;66.45
61113;BME280;47184;57.998;56.184;2023-02-14T10:20:56;100188.69;;;-0.98;66.81
61113;BME280;47184;57.998;56.184;2023-02-14T10:23:57;100176.66;;;-1.00;66.93
61113;BME280;47184;57.998;56.184;2023-02-14T10:26:35;100186.59;;;-0.92;66.36
61113;BME280;47184;57.998;56.184;2023-02-14T10:29:05;100179.34;;;-0.85;66.63
61113;BME280;47184;57.998;56.184;2023-02-14T10:34:45;100179.50;;;-0.88;66.63
61113;BME280;47184;57.998;56.184;2023-02-14T11:01:52;100185.75;;;-0.61;66.93
61113;BME280;47184;57.998;56.184;2023-02-14T11:04:21;100174.56;;;-0.61;66.89
61113;BME280;47184;57.998;56.184;2023-02-14T11:06:48;100169.53;;;-0.64;67.00
61113;BME280;47184;57.998;56.184;2023-02-14T11:09:16;100195.47;;;-0.48;66.44
61113;BME280;47184;57.998;56.184;2023-02-14T11:11:55;100191.78;;;-0.44;66.62
61113;BME280;47184;57.998;56.184;2023-02-14T11:16:56;100179.13;;;-0.51;66.95
61113;BME280;47184;57.998;56.184;2023-02-14T11:19:23;100205.00;;;-0.49;66.95
61113;BME280;47184;57.998;56.184;2023-02-14T11:21:52;100200.56;;;-0.63;67.20
61113;BME280;47184;57.998;56.184;2023-02-14T11:26:59;100199.16;;;-0.68;67.14
61113;BME280;47184;57.998;56.184;2023-02-14T11:29:34;100159.19;;;-0.96;66.83
61113;BME280;47184;57.998;56.184;2023-02-14T11:32:08;100207.75;;;-0.68;66.94
61113;BME280;47184;57.998;56.184;2023-02-14T11:34:40;100197.97;;;-0.79;67.51
61113;BME280;47184;57.998;56.184;2023-02-14T11:37:27;100217.88;;;-0.79;67.40
61113;BME280;47184;57.998;56.184;2023-02-14T11:39:58;100208.75;;;-0.70;66.87
61113;BME280;47184;57.998;56.184;2023-02-14T11:42:44;100207.66;;;-0.82;67.14
61113;BME280;47184;57.998;56.184;2023-02-14T11:45:34;100219.63;;;-0.80;66.87
61113;BME280;47184;57.998;56.184;2023-02-14T11:48:25;100219.47;;;-0.77;66.80
61113;BME280;47184;57.998;56.184;2023-02-14T11:51:04;100225.25;;;-0.71;66.86
61113;BME280;47184;57.998;56.184;2023-02-14T11:53:52;100223.16;;;-0.81;67.16
61113;BME280;47184;57.998;56.184;2023-02-14T11:56:22;100220.06;;;-0.71;67.38
61113;BME280;47184;57.998;56.184;2023-02-14T12:01:26;100218.38;;;-0.72;66.90
61113;BME280;47184;57.998;56.184;2023-02-14T12:03:56;100213.28;;;-0.74;66.78
61113;BME280;47184;57.998;56.184;2023-02-14T12:06:25;100214.97;;;-0.73;67.08
61113;BME280;47184;57.998;56.184;2023-02-14T12:09:12;100221.47;;;-0.66;67.51
61113;BME280;47184;57.998;56.184;2023-02-14T12:12:03;100229.03;;;-0.61;66.69
61113;BME280;47184;57.998;56.184;2023-02-14T12:14:31;100229.66;;;-0.58;66.64
61113;BME280;47184;57.998;56.184;2023-02-14T12:20:09;100223.88;;;-0.79;67.46
61113;BME280;47184;57.998;56.184;2023-02-14T12:22:50;100225.16;;;-0.70;66.84
61113;BME280;47184;57.998;56.184;2023-02-14T12:25:23;100225.81;;;-0.66;67.13
61113;BME280;47184;57.998;56.184;2023-02-14T12:28:14;100234.00;;;-0.74;66.77
61113;BME280;47184;57.998;56.184;2023-02-14T12:30:41;100234.63;;;-0.69;66.83
61113;BME280;47184;57.998;56.184;2023-02-14T12:33:18;100237.69;;;-0.78;67.34
61113;BME280;47184;57.998;56.184;2023-02-14T12:35:58;100237.75;;;-0.95;67.41
61113;BME280;47184;57.998;56.184;2023-02-14T12:44:32;100231.59;;;-0.77;67.67
61113;BME280;47184;57.998;56.184;2023-02-14T12:58:15;100226.47;;;-1.10;68.01
61113;BME280;47184;57.998;56.184;2023-02-14T13:06:27;100221.66;;;-1.34;68.67
61113;BME280;47184;57.998;56.184;2023-02-14T13:15:17;100225.56;;;-1.42;69.66
61113;BME280;47184;57.998;56.184;2023-02-14T13:17:55;100224.28;;;-1.51;70.01
61113;BME280;47184;57.998;56.184;2023-02-14T13:20:39;100233.88;;;-1.53;69.99
61113;BME280;47184;57.998;56.184;2023-02-14T13:29:05;100232.88;;;-1.51;70.26
61113;BME280;47184;57.998;56.184;2023-02-14T13:31:32;100234.31;;;-1.45;69.76
61113;BME280;47184;57.998;56.184;2023-02-14T13:36:57;100236.22;;;-1.48;69.94
61113;BME280;47184;57.998;56.184;2023-02-14T13:39:35;100234.09;;;-1.58;70.18
61113;BME280;47184;57.998;56.184;2023-02-14T13:42:03;100248.03;;;-1.60;70.41
61113;BME280;47184;57.998;56.184;2023-02-14T13:44:44;100233.06;;;-1.71;70.47
61113;BME280;47184;57.998;56.184;2023-02-14T13:47:22;100231.06;;;-1.83;70.64
61113;BME280;47184;57.998;56.184;2023-02-14T13:49:59;100243.56;;;-1.74;70.35
61113;BME280;47184;57.998;56.184;2023-02-14T13:52:46;100240.50;;;-1.82;70.87
61113;BME280;47184;57.998;56.184;2023-02-14T13:55:23;100250.72;;;-1.79;70.86
61113;BME280;47184;57.998;56.184;2023-02-14T13:58:00;100245.59;;;-1.81;70.71
61113;BME280;47184;57.998;56.184;2023-02-14T14:00:40;100249.78;;;-1.78;70.51
61113;BME280;47184;57.998;56.184;2023-02-14T14:03:51;100236.06;;;-1.80;70.91
61113;BME280;47184;57.998;56.184;2023-02-14T14:06:00;100249.41;;;-1.70;70.54
61113;BME280;47184;57.998;56.184;2023-02-14T14:10:59;100256.72;;;-1.79;70.52
61113;BME280;47184;57.998;56.184;2023-02-14T14:21:40;100252.47;;;-1.80;70.65
61113;BME280;47184;57.998;56.184;2023-02-14T14:24:50;100256.31;;;-1.88;70.57
61113;BME280;47184;57.998;56.184;2023-02-14T14:27:28;100253.75;;;-1.88;70.73
61113;BME280;47184;57.998;56.184;2023-02-14T14:29:56;100250.41;;;-1.90;71.21
61113;BME280;47184;57.998;56.184;2023-02-14T14:32:37;100233.97;;;-2.07;71.02
61113;BME280;47184;57.998;56.184;2023-02-14T14:35:06;100255.50;;;-1.89;70.38
61113;BME280;47184;57.998;56.184;2023-02-14T14:37:35;100257.09;;;-1.86;70.31
61113;BME280;47184;57.998;56.184;2023-02-14T14:40:04;100247.91;;;-1.92;70.28
61113;BME280;47184;57.998;56.184;2023-02-14T14:42:35;100241.72;;;-1.89;70.17
61113;BME280;47184;57.998;56.184;2023-02-14T14:45:20;100248.75;;;-1.91;70.81
61113;BME280;47184;57.998;56.184;2023-02-14T14:47:50;100258.63;;;-1.82;70.97
61113;BME280;47184;57.998;56.184;2023-02-14T14:50:37;100249.25;;;-1.85;70.72
61113;BME280;47184;57.998;56.184;2023-02-14T14:53:06;100233.56;;;-1.82;70.57
61113;BME280;47184;57.998;56.184;2023-02-14T14:55:37;100236.31;;;-1.85;70.68
61113;BME280;47184;57.998;56.184;2023-02-14T14:58:06;100246.38;;;-1.79;70.44
61113;BME280;47184;57.998;56.184;2023-02-14T15:00:51;100253.91;;;-1.74;70.88
61113;BME280;47184;57.998;56.184;2023-02-14T15:03:22;100250.50;;;-1.75;70.58
61113;BME280;47184;57.998;56.184;2023-02-14T15:05:50;100241.19;;;-1.79;70.60
61113;BME280;47184;57.998;56.184;2023-02-14T15:16:52;100240.81;;;-1.88;70.44
61113;BME280;47184;57.998;56.184;2023-02-14T15:19:35;100203.00;;;-2.08;70.72
61113;BME280;47184;57.998;56.184;2023-02-14T15:22:26;100221.47;;;-1.98;70.61
61113;BME280;47184;57.998;56.184;2023-02-14T15:24:57;100244.84;;;-1.83;71.62
61113;BME280;47184;57.998;56.184;2023-02-14T15:27:25;100221.38;;;-1.97;71.18
61113;BME280;47184;57.998;56.184;2023-02-14T15:30:03;100240.59;;;-1.84;71.35
61113;BME280;47184;57.998;56.184;2023-02-14T15:32:34;100247.34;;;-1.81;71.46
61113;BME280;47184;57.998;56.184;2023-02-14T15:35:04;100245.47;;;-1.78;70.99
61113;BME280;47184;57.998;56.184;2023-02-14T15:37:32;100219.91;;;-1.84;70.64
61113;BME280;47184;57.998;56.184;2023-02-14T15:39:58;100228.16;;;-1.77;71.00